Aviation Digital Data Service (ADDS)

Output produced by METARs form (1730 UTC 16 June 2019)
found at http://www.aviationweather.gov/metar/data/
 
METAR text: URSS 161700Z 25002MPS 210V280 9999 NSC 26/21 Q1006 R02/010070 R06/010070 NOSIG RMK R06/28003G06MPS QFE753
Conditions at: URSS (SOTCHI , RU) observed 1700 UTC 16 June 2019
Temperature: 26.0°C (79°F)
Dewpoint: 21.0°C (70°F) [RH = 74%]
Pressure (altimeter): 29.70 inches Hg (1006.0 mb)
Winds: from the WSW (250 degrees) at 5 MPH (4 knots; 2.1 m/s)
Visibility: 6 or more miles (10+ km)
Ceiling: at least 12,000 feet AGL
Clouds: sky clear below 12,000 feet AGL
Weather: no significant weather observed at this time

METAR text: URSS 161630Z 27004MPS 9999 NSC 26/22 Q1007 R02/010070 R06/010070 NOSIG RMK R06/29005MPS QFE754
Conditions at: URSS (SOTCHI , RU) observed 1630 UTC 16 June 2019
Temperature: 26.0°C (79°F)
Dewpoint: 22.0°C (72°F) [RH = 79%]
Pressure (altimeter): 29.73 inches Hg (1007.0 mb)
Winds: from the W (270 degrees) at 9 MPH (8 knots; 4.1 m/s)
Visibility: 6 or more miles (10+ km)
Ceiling: at least 12,000 feet AGL
Clouds: sky clear below 12,000 feet AGL
Weather: no significant weather observed at this time

METAR text: URSS 161600Z 29004MPS 9999 NSC 27/22 Q1007 R02/010070 R06/010070 NOSIG RMK R06/29005G10MPS QFE753
Conditions at: URSS (SOTCHI , RU) observed 1600 UTC 16 June 2019
Temperature: 27.0°C (81°F)
Dewpoint: 22.0°C (72°F) [RH = 74%]
Pressure (altimeter): 29.73 inches Hg (1007.0 mb)
Winds: from the WNW (290 degrees) at 9 MPH (8 knots; 4.1 m/s)
Visibility: 6 or more miles (10+ km)
Ceiling: at least 12,000 feet AGL
Clouds: sky clear below 12,000 feet AGL
Weather: no significant weather observed at this time

METAR text: URSS 161530Z 29004MPS 9999 NSC 27/23 Q1007 R02/010070 R06/010070 NOSIG RMK R06/29006G09MPS QFE754
Conditions at: URSS (SOTCHI , RU) observed 1530 UTC 16 June 2019
Temperature: 27.0°C (81°F)
Dewpoint: 23.0°C (73°F) [RH = 79%]
Pressure (altimeter): 29.73 inches Hg (1007.0 mb)
Winds: from the WNW (290 degrees) at 9 MPH (8 knots; 4.1 m/s)
Visibility: 6 or more miles (10+ km)
Ceiling: at least 12,000 feet AGL
Clouds: sky clear below 12,000 feet AGL
Weather: no significant weather observed at this time

METAR text: URSS 161500Z 29005MPS 9999 NSC 27/23 Q1006 R02/010070 R06/010070 NOSIG RMK R06/29007G10MPS QFE753
Conditions at: URSS (SOTCHI , RU) observed 1500 UTC 16 June 2019
Temperature: 27.0°C (81°F)
Dewpoint: 23.0°C (73°F) [RH = 79%]
Pressure (altimeter): 29.70 inches Hg (1006.0 mb)
Winds: from the WNW (290 degrees) at 12 MPH (10 knots; 5.1 m/s)
Visibility: 6 or more miles (10+ km)
Ceiling: at least 12,000 feet AGL
Clouds: sky clear below 12,000 feet AGL
Weather: no significant weather observed at this time

METAR text: URSS 161430Z 29006MPS 9999 SCT040TCU 27/23 Q1007 R02/010070 R06/010070 NOSIG RMK R06/28008G12MPS MT OBSC QFE753
Conditions at: URSS (SOTCHI , RU) observed 1430 UTC 16 June 2019
Temperature: 27.0°C (81°F)
Dewpoint: 23.0°C (73°F) [RH = 79%]
Pressure (altimeter): 29.73 inches Hg (1007.0 mb)
Winds: from the WNW (290 degrees) at 14 MPH (12 knots; 6.2 m/s)
Visibility: 6 or more miles (10+ km)
Ceiling: at least 12,000 feet AGL
Clouds: scattered clouds at 4000 feet AGL
Weather: no significant weather observed at this time

METAR text: URSS 161400Z 29006MPS 9999 SCT040TCU 28/23 Q1007 R02/010070 R06/010070 NOSIG RMK R06/29007G10MPS MT OBSC QFE754
Conditions at: URSS (SOTCHI , RU) observed 1400 UTC 16 June 2019
Temperature: 28.0°C (82°F)
Dewpoint: 23.0°C (73°F) [RH = 74%]
Pressure (altimeter): 29.73 inches Hg (1007.0 mb)
Winds: from the WNW (290 degrees) at 14 MPH (12 knots; 6.2 m/s)
Visibility: 6 or more miles (10+ km)
Ceiling: at least 12,000 feet AGL
Clouds: scattered clouds at 4000 feet AGL
Weather: no significant weather observed at this time

METAR text: URSS 161330Z 28005MPS 9999 SCT040TCU 28/23 Q1007 R02/010070 R06/010070 NOSIG RMK R06/28007MPS MT OBSC QFE754
Conditions at: URSS (SOTCHI , RU) observed 1330 UTC 16 June 2019
Temperature: 28.0°C (82°F)
Dewpoint: 23.0°C (73°F) [RH = 74%]
Pressure (altimeter): 29.73 inches Hg (1007.0 mb)
Winds: from the W (280 degrees) at 12 MPH (10 knots; 5.1 m/s)
Visibility: 6 or more miles (10+ km)
Ceiling: at least 12,000 feet AGL
Clouds: scattered clouds at 4000 feet AGL
Weather: no significant weather observed at this time

METAR text: URSS 161300Z 29005MPS 9999 SCT040TCU 28/22 Q1007 R02/010070 R06/010070 NOSIG RMK R06/29007G11MPS MT OBSC QFE754
Conditions at: URSS (SOTCHI , RU) observed 1300 UTC 16 June 2019
Temperature: 28.0°C (82°F)
Dewpoint: 22.0°C (72°F) [RH = 70%]
Pressure (altimeter): 29.73 inches Hg (1007.0 mb)
Winds: from the WNW (290 degrees) at 12 MPH (10 knots; 5.1 m/s)
Visibility: 6 or more miles (10+ km)
Ceiling: at least 12,000 feet AGL
Clouds: scattered clouds at 4000 feet AGL
Weather: no significant weather observed at this time

METAR text: URSS 161230Z 29005MPS 9999 SCT040TCU 28/22 Q1008 R02/010070 R06/010070 NOSIG RMK R06/29007G11MPS MT OBSC QFE754
Conditions at: URSS (SOTCHI , RU) observed 1230 UTC 16 June 2019
Temperature: 28.0°C (82°F)
Dewpoint: 22.0°C (72°F) [RH = 70%]
Pressure (altimeter): 29.76 inches Hg (1008.0 mb)
Winds: from the WNW (290 degrees) at 12 MPH (10 knots; 5.1 m/s)
Visibility: 6 or more miles (10+ km)
Ceiling: at least 12,000 feet AGL
Clouds: scattered clouds at 4000 feet AGL
Weather: no significant weather observed at this time

METAR text: URSS 161200Z 29004MPS 9999 SCT040TCU 28/22 Q1008 R02/010070 R06/010070 NOSIG RMK R06/29006MPS MT OBSC QFE754
Conditions at: URSS (SOTCHI , RU) observed 1200 UTC 16 June 2019
Temperature: 28.0°C (82°F)
Dewpoint: 22.0°C (72°F) [RH = 70%]
Pressure (altimeter): 29.76 inches Hg (1008.0 mb)
Winds: from the WNW (290 degrees) at 9 MPH (8 knots; 4.1 m/s)
Visibility: 6 or more miles (10+ km)
Ceiling: at least 12,000 feet AGL
Clouds: scattered clouds at 4000 feet AGL
Weather: no significant weather observed at this time

METAR text: URSS 161130Z 29005MPS 250V320 9999 SCT040TCU 28/22 Q1008 R02/010070 R06/010070 NOSIG RMK R06/29006G09MPS MT OBSC QFE754
Conditions at: URSS (SOTCHI , RU) observed 1130 UTC 16 June 2019
Temperature: 28.0°C (82°F)
Dewpoint: 22.0°C (72°F) [RH = 70%]
Pressure (altimeter): 29.76 inches Hg (1008.0 mb)
Winds: from the WNW (290 degrees) at 12 MPH (10 knots; 5.1 m/s)
Visibility: 6 or more miles (10+ km)
Ceiling: at least 12,000 feet AGL
Clouds: scattered clouds at 4000 feet AGL
Weather: no significant weather observed at this time

METAR text: URSS 161100Z 27005MPS 9999 SCT040TCU 28/22 Q1008 R02/010070 R06/010070 NOSIG RMK R06/28006MPS MT OBSC QFE755
Conditions at: URSS (SOTCHI , RU) observed 1100 UTC 16 June 2019
Temperature: 28.0°C (82°F)
Dewpoint: 22.0°C (72°F) [RH = 70%]
Pressure (altimeter): 29.76 inches Hg (1008.0 mb)
Winds: from the W (270 degrees) at 12 MPH (10 knots; 5.1 m/s)
Visibility: 6 or more miles (10+ km)
Ceiling: at least 12,000 feet AGL
Clouds: scattered clouds at 4000 feet AGL
Weather: no significant weather observed at this time

METAR text: URSS 161030Z 27005MPS 9999 FEW050TCU 28/22 Q1008 R02/010070 R06/010070 NOSIG RMK R06/29005MPS QFE755
Conditions at: URSS (SOTCHI , RU) observed 1030 UTC 16 June 2019
Temperature: 28.0°C (82°F)
Dewpoint: 22.0°C (72°F) [RH = 70%]
Pressure (altimeter): 29.76 inches Hg (1008.0 mb)
Winds: from the W (270 degrees) at 12 MPH (10 knots; 5.1 m/s)
Visibility: 6 or more miles (10+ km)
Ceiling: at least 12,000 feet AGL
Clouds: few clouds at 5000 feet AGL
Weather: no significant weather observed at this time

METAR text: URSS 161000Z 27004MPS 9999 FEW050 28/22 Q1008 R02/010070 R06/010070 NOSIG RMK R06/29005G09MPS QFE755
Conditions at: URSS (SOTCHI , RU) observed 1000 UTC 16 June 2019
Temperature: 28.0°C (82°F)
Dewpoint: 22.0°C (72°F) [RH = 70%]
Pressure (altimeter): 29.76 inches Hg (1008.0 mb)
Winds: from the W (270 degrees) at 9 MPH (8 knots; 4.1 m/s)
Visibility: 6 or more miles (10+ km)
Ceiling: at least 12,000 feet AGL
Clouds: few clouds at 5000 feet AGL
Weather: no significant weather observed at this time

METAR text: URSS 160930Z 27004MPS 9999 FEW050 29/20 Q1008 R02/010070 R06/010070 NOSIG RMK R06/28005MPS QFE755
Conditions at: URSS (SOTCHI , RU) observed 0930 UTC 16 June 2019
Temperature: 29.0°C (84°F)
Dewpoint: 20.0°C (68°F) [RH = 58%]
Pressure (altimeter): 29.76 inches Hg (1008.0 mb)
Winds: from the W (270 degrees) at 9 MPH (8 knots; 4.1 m/s)
Visibility: 6 or more miles (10+ km)
Ceiling: at least 12,000 feet AGL
Clouds: few clouds at 5000 feet AGL
Weather: no significant weather observed at this time

METAR text: URSS 160900Z 27002MPS 210V320 9999 FEW050 29/20 Q1009 R02/010070 R06/010070 NOSIG RMK R06/28002G05MPS QFE755
Conditions at: URSS (SOTCHI , RU) observed 0900 UTC 16 June 2019
Temperature: 29.0°C (84°F)
Dewpoint: 20.0°C (68°F) [RH = 58%]
Pressure (altimeter): 29.79 inches Hg (1009.0 mb)
Winds: from the W (270 degrees) at 5 MPH (4 knots; 2.1 m/s)
Visibility: 6 or more miles (10+ km)
Ceiling: at least 12,000 feet AGL
Clouds: few clouds at 5000 feet AGL
Weather: no significant weather observed at this time

METAR text: URSS 160830Z 26002MPS 230V310 9999 NSC 27/19 Q1009 R02/010070 R06/010070 NOSIG RMK R06/29003MPS QFE755
Conditions at: URSS (SOTCHI , RU) observed 0830 UTC 16 June 2019
Temperature: 27.0°C (81°F)
Dewpoint: 19.0°C (66°F) [RH = 62%]
Pressure (altimeter): 29.79 inches Hg (1009.0 mb)
Winds: from the W (260 degrees) at 5 MPH (4 knots; 2.1 m/s)
Visibility: 6 or more miles (10+ km)
Ceiling: at least 12,000 feet AGL
Clouds: sky clear below 12,000 feet AGL
Weather: no significant weather observed at this time

METAR text: URSS 160800Z 25003MPS 9999 NSC 27/20 Q1009 R02/010070 R06/010070 NOSIG RMK R06/28003G07MPS QFE755
Conditions at: URSS (SOTCHI , RU) observed 0800 UTC 16 June 2019
Temperature: 27.0°C (81°F)
Dewpoint: 20.0°C (68°F) [RH = 66%]
Pressure (altimeter): 29.79 inches Hg (1009.0 mb)
Winds: from the WSW (250 degrees) at 7 MPH (6 knots; 3.1 m/s)
Visibility: 6 or more miles (10+ km)
Ceiling: at least 12,000 feet AGL
Clouds: sky clear below 12,000 feet AGL
Weather: no significant weather observed at this time

METAR text: URSS 160730Z 24003MPS 9999 NSC 27/20 Q1009 R02/010070 R06/010070 NOSIG RMK R06/26003MPS QFE755
Conditions at: URSS (SOTCHI , RU) observed 0730 UTC 16 June 2019
Temperature: 27.0°C (81°F)
Dewpoint: 20.0°C (68°F) [RH = 66%]
Pressure (altimeter): 29.79 inches Hg (1009.0 mb)
Winds: from the WSW (240 degrees) at 7 MPH (6 knots; 3.1 m/s)
Visibility: 6 or more miles (10+ km)
Ceiling: at least 12,000 feet AGL
Clouds: sky clear below 12,000 feet AGL
Weather: no significant weather observed at this time

METAR text: URSS 160700Z 25003MPS 9999 NSC 27/18 Q1008 R02/010070 R06/010070 NOSIG RMK R06/25003MPS QFE755
Conditions at: URSS (SOTCHI , RU) observed 0700 UTC 16 June 2019
Temperature: 27.0°C (81°F)
Dewpoint: 18.0°C (64°F) [RH = 58%]
Pressure (altimeter): 29.76 inches Hg (1008.0 mb)
Winds: from the WSW (250 degrees) at 7 MPH (6 knots; 3.1 m/s)
Visibility: 6 or more miles (10+ km)
Ceiling: at least 12,000 feet AGL
Clouds: sky clear below 12,000 feet AGL
Weather: no significant weather observed at this time

METAR text: URSS 160630Z 22002MPS 130V280 9999 NSC 29/18 Q1008 R02/010070 R06/010070 NOSIG RMK R06/26003MPS QFE755
Conditions at: URSS (SOTCHI , RU) observed 0630 UTC 16 June 2019
Temperature: 29.0°C (84°F)
Dewpoint: 18.0°C (64°F) [RH = 52%]
Pressure (altimeter): 29.76 inches Hg (1008.0 mb)
Winds: from the SW (220 degrees) at 5 MPH (4 knots; 2.1 m/s)
Visibility: 6 or more miles (10+ km)
Ceiling: at least 12,000 feet AGL
Clouds: sky clear below 12,000 feet AGL
Weather: no significant weather observed at this time

METAR text: URSS 160600Z 04003MPS 9999 NSC 29/18 Q1008 R02/010070 R06/010070 NOSIG RMK R06/10002MPS QFE755
Conditions at: URSS (SOTCHI , RU) observed 0600 UTC 16 June 2019
Temperature: 29.0°C (84°F)
Dewpoint: 18.0°C (64°F) [RH = 52%]
Pressure (altimeter): 29.76 inches Hg (1008.0 mb)
Winds: from the NE (40 degrees) at 7 MPH (6 knots; 3.1 m/s)
Visibility: 6 or more miles (10+ km)
Ceiling: at least 12,000 feet AGL
Clouds: sky clear below 12,000 feet AGL
Weather: no significant weather observed at this time

METAR text: URSS 160530Z 04004MPS 9999 NSC 28/17 Q1008 R02/010070 R06/010070 NOSIG RMK R06/07003MPS QFE755
Conditions at: URSS (SOTCHI , RU) observed 0530 UTC 16 June 2019
Temperature: 28.0°C (82°F)
Dewpoint: 17.0°C (63°F) [RH = 51%]
Pressure (altimeter): 29.76 inches Hg (1008.0 mb)
Winds: from the NE (40 degrees) at 9 MPH (8 knots; 4.1 m/s)
Visibility: 6 or more miles (10+ km)
Ceiling: at least 12,000 feet AGL
Clouds: sky clear below 12,000 feet AGL
Weather: no significant weather observed at this time

METAR text: URSS 160500Z 04004MPS 9999 NSC 26/17 Q1008 R02/010070 R06/010070 NOSIG RMK R06/07004MPS QFE755
Conditions at: URSS (SOTCHI , RU) observed 0500 UTC 16 June 2019
Temperature: 26.0°C (79°F)
Dewpoint: 17.0°C (63°F) [RH = 58%]
Pressure (altimeter): 29.76 inches Hg (1008.0 mb)
Winds: from the NE (40 degrees) at 9 MPH (8 knots; 4.1 m/s)
Visibility: 6 or more miles (10+ km)
Ceiling: at least 12,000 feet AGL
Clouds: sky clear below 12,000 feet AGL
Weather: no significant weather observed at this time

METAR text: URSS 160430Z 04005MPS 9999 NSC 25/17 Q1008 R02/010070 R06/010070 NOSIG RMK R06/07004MPS QFE755
Conditions at: URSS (SOTCHI , RU) observed 0430 UTC 16 June 2019
Temperature: 25.0°C (77°F)
Dewpoint: 17.0°C (63°F) [RH = 61%]
Pressure (altimeter): 29.76 inches Hg (1008.0 mb)
Winds: from the NE (40 degrees) at 12 MPH (10 knots; 5.1 m/s)
Visibility: 6 or more miles (10+ km)
Ceiling: at least 12,000 feet AGL
Clouds: sky clear below 12,000 feet AGL
Weather: no significant weather observed at this time

METAR text: URSS 160400Z 04005MPS 9999 NSC 24/16 Q1009 R02/010070 R06/010070 NOSIG RMK R06/07004MPS QFE755
Conditions at: URSS (SOTCHI , RU) observed 0400 UTC 16 June 2019
Temperature: 24.0°C (75°F)
Dewpoint: 16.0°C (61°F) [RH = 61%]
Pressure (altimeter): 29.79 inches Hg (1009.0 mb)
Winds: from the NE (40 degrees) at 12 MPH (10 knots; 5.1 m/s)
Visibility: 6 or more miles (10+ km)
Ceiling: at least 12,000 feet AGL
Clouds: sky clear below 12,000 feet AGL
Weather: no significant weather observed at this time

METAR text: URSS 160330Z 04005MPS 9999 NSC 23/16 Q1009 R02/010070 R06/010070 NOSIG RMK R06/07006MPS QFE755
Conditions at: URSS (SOTCHI , RU) observed 0330 UTC 16 June 2019
Temperature: 23.0°C (73°F)
Dewpoint: 16.0°C (61°F) [RH = 65%]
Pressure (altimeter): 29.79 inches Hg (1009.0 mb)
Winds: from the NE (40 degrees) at 12 MPH (10 knots; 5.1 m/s)
Visibility: 6 or more miles (10+ km)
Ceiling: at least 12,000 feet AGL
Clouds: sky clear below 12,000 feet AGL
Weather: no significant weather observed at this time

METAR text: URSS 160300Z 05005MPS 9999 NSC 22/16 Q1009 R02/010070 R06/010070 NOSIG RMK R06/08006MPS QFE755
Conditions at: URSS (SOTCHI , RU) observed 0300 UTC 16 June 2019
Temperature: 22.0°C (72°F)
Dewpoint: 16.0°C (61°F) [RH = 69%]
Pressure (altimeter): 29.79 inches Hg (1009.0 mb)
Winds: from the NE (50 degrees) at 12 MPH (10 knots; 5.1 m/s)
Visibility: 6 or more miles (10+ km)
Ceiling: at least 12,000 feet AGL
Clouds: sky clear below 12,000 feet AGL
Weather: no significant weather observed at this time

METAR text: URSS 160230Z 05005MPS 9999 NSC 21/16 Q1009 R02/010070 R06/010070 NOSIG RMK R06/07004MPS QFE755
Conditions at: URSS (SOTCHI , RU) observed 0230 UTC 16 June 2019
Temperature: 21.0°C (70°F)
Dewpoint: 16.0°C (61°F) [RH = 73%]
Pressure (altimeter): 29.79 inches Hg (1009.0 mb)
Winds: from the NE (50 degrees) at 12 MPH (10 knots; 5.1 m/s)
Visibility: 6 or more miles (10+ km)
Ceiling: at least 12,000 feet AGL
Clouds: sky clear below 12,000 feet AGL
Weather: no significant weather observed at this time

METAR text: URSS 160200Z 05004MPS 9999 NSC 21/15 Q1008 R02/010070 R06/010070 NOSIG RMK R06/07004MPS QFE755
Conditions at: URSS (SOTCHI , RU) observed 0200 UTC 16 June 2019
Temperature: 21.0°C (70°F)
Dewpoint: 15.0°C (59°F) [RH = 69%]
Pressure (altimeter): 29.76 inches Hg (1008.0 mb)
Winds: from the NE (50 degrees) at 9 MPH (8 knots; 4.1 m/s)
Visibility: 6 or more miles (10+ km)
Ceiling: at least 12,000 feet AGL
Clouds: sky clear below 12,000 feet AGL
Weather: no significant weather observed at this time

METAR text: URSS 160130Z 05005MPS 9999 NSC 21/15 Q1008 R02/010070 R06/010070 NOSIG RMK R06/07005MPS QFE755
Conditions at: URSS (SOTCHI , RU) observed 0130 UTC 16 June 2019
Temperature: 21.0°C (70°F)
Dewpoint: 15.0°C (59°F) [RH = 69%]
Pressure (altimeter): 29.76 inches Hg (1008.0 mb)
Winds: from the NE (50 degrees) at 12 MPH (10 knots; 5.1 m/s)
Visibility: 6 or more miles (10+ km)
Ceiling: at least 12,000 feet AGL
Clouds: sky clear below 12,000 feet AGL
Weather: no significant weather observed at this time

METAR text: URSS 160100Z 05005MPS 9999 NSC 21/16 Q1008 R02/010070 R06/010070 NOSIG RMK R06/07005MPS QFE755
Conditions at: URSS (SOTCHI , RU) observed 0100 UTC 16 June 2019
Temperature: 21.0°C (70°F)
Dewpoint: 16.0°C (61°F) [RH = 73%]
Pressure (altimeter): 29.76 inches Hg (1008.0 mb)
Winds: from the NE (50 degrees) at 12 MPH (10 knots; 5.1 m/s)
Visibility: 6 or more miles (10+ km)
Ceiling: at least 12,000 feet AGL
Clouds: sky clear below 12,000 feet AGL
Weather: no significant weather observed at this time

METAR text: URSS 160030Z 05005MPS 9999 FEW014 21/16 Q1009 R02/010070 R06/010070 NOSIG RMK R06/07006MPS MT OBSC QFE755
Conditions at: URSS (SOTCHI , RU) observed 0030 UTC 16 June 2019
Temperature: 21.0°C (70°F)
Dewpoint: 16.0°C (61°F) [RH = 73%]
Pressure (altimeter): 29.79 inches Hg (1009.0 mb)
Winds: from the NE (50 degrees) at 12 MPH (10 knots; 5.1 m/s)
Visibility: 6 or more miles (10+ km)
Ceiling: at least 12,000 feet AGL
Clouds: few clouds at 1400 feet AGL
Weather: no significant weather observed at this time

METAR text: URSS 160000Z 05004MPS 9999 NSC 23/16 Q1009 R02/010070 R06/010070 NOSIG RMK R06/09004MPS QFE755
Conditions at: URSS (SOTCHI , RU) observed 0000 UTC 16 June 2019
Temperature: 23.0°C (73°F)
Dewpoint: 16.0°C (61°F) [RH = 65%]
Pressure (altimeter): 29.79 inches Hg (1009.0 mb)
Winds: from the NE (50 degrees) at 9 MPH (8 knots; 4.1 m/s)
Visibility: 6 or more miles (10+ km)
Ceiling: at least 12,000 feet AGL
Clouds: sky clear below 12,000 feet AGL
Weather: no significant weather observed at this time

METAR text: URSS 152330Z 05004MPS 9999 SCT012 22/17 Q1008 R02/010070 R06/010070 NOSIG RMK R06/08004MPS MT OBSC QFE755
Conditions at: URSS (SOTCHI , RU) observed 2330 UTC 15 June 2019
Temperature: 22.0°C (72°F)
Dewpoint: 17.0°C (63°F) [RH = 73%]
Pressure (altimeter): 29.76 inches Hg (1008.0 mb)
Winds: from the NE (50 degrees) at 9 MPH (8 knots; 4.1 m/s)
Visibility: 6 or more miles (10+ km)
Ceiling: at least 12,000 feet AGL
Clouds: scattered clouds at 1200 feet AGL
Weather: no significant weather observed at this time

METAR text: URSS 152300Z 05004MPS 9999 SCT012 23/17 Q1009 R02/010070 R06/010070 NOSIG RMK R06/07004MPS MT OBSC QFE755
Conditions at: URSS (SOTCHI , RU) observed 2300 UTC 15 June 2019
Temperature: 23.0°C (73°F)
Dewpoint: 17.0°C (63°F) [RH = 69%]
Pressure (altimeter): 29.79 inches Hg (1009.0 mb)
Winds: from the NE (50 degrees) at 9 MPH (8 knots; 4.1 m/s)
Visibility: 6 or more miles (10+ km)
Ceiling: at least 12,000 feet AGL
Clouds: scattered clouds at 1200 feet AGL
Weather: no significant weather observed at this time

METAR text: URSS 152230Z 06003MPS 9999 BKN012 23/17 Q1009 R02/010070 R06/010070 NOSIG RMK R06/07004MPS MT OBSC QFE755
Conditions at: URSS (SOTCHI , RU) observed 2230 UTC 15 June 2019
Temperature: 23.0°C (73°F)
Dewpoint: 17.0°C (63°F) [RH = 69%]
Pressure (altimeter): 29.79 inches Hg (1009.0 mb)
Winds: from the ENE (60 degrees) at 7 MPH (6 knots; 3.1 m/s)
Visibility: 6 or more miles (10+ km)
Ceiling: 1200 feet AGL
Clouds: broken clouds at 1200 feet AGL
Weather: no significant weather observed at this time

METAR text: URSS 152200Z 04003MPS 9999 BKN011 24/20 Q1009 R02/010070 R06/010070 NOSIG RMK R06/06004MPS MT OBSC QFE755
Conditions at: URSS (SOTCHI , RU) observed 2200 UTC 15 June 2019
Temperature: 24.0°C (75°F)
Dewpoint: 20.0°C (68°F) [RH = 78%]
Pressure (altimeter): 29.79 inches Hg (1009.0 mb)
Winds: from the NE (40 degrees) at 7 MPH (6 knots; 3.1 m/s)
Visibility: 6 or more miles (10+ km)
Ceiling: 1100 feet AGL
Clouds: broken clouds at 1100 feet AGL
Weather: no significant weather observed at this time

METAR text: URSS 152130Z 07003MPS 9999 BKN010 25/21 Q1009 R02/010070 R06/010070 NOSIG RMK R06/08004MPS MT OBSC QFE755
Conditions at: URSS (SOTCHI , RU) observed 2130 UTC 15 June 2019
Temperature: 25.0°C (77°F)
Dewpoint: 21.0°C (70°F) [RH = 79%]
Pressure (altimeter): 29.79 inches Hg (1009.0 mb)
Winds: from the ENE (70 degrees) at 7 MPH (6 knots; 3.1 m/s)
Visibility: 6 or more miles (10+ km)
Ceiling: 1000 feet AGL
Clouds: broken clouds at 1000 feet AGL
Weather: no significant weather observed at this time

METAR text: URSS 152100Z 05002MPS 030V140 9999 BKN010 24/19 Q1009 R02/010070 R06/010070 NOSIG RMK R06/07004MPS MT OBSC QFE755
Conditions at: URSS (SOTCHI , RU) observed 2100 UTC 15 June 2019
Temperature: 24.0°C (75°F)
Dewpoint: 19.0°C (66°F) [RH = 74%]
Pressure (altimeter): 29.79 inches Hg (1009.0 mb)
Winds: from the NE (50 degrees) at 5 MPH (4 knots; 2.1 m/s)
Visibility: 6 or more miles (10+ km)
Ceiling: 1000 feet AGL
Clouds: broken clouds at 1000 feet AGL
Weather: no significant weather observed at this time

METAR text: URSS 152030Z 05003MPS 9999 BKN010 24/20 Q1009 R02/010070 R06/010070 NOSIG RMK R06/08004MPS MT OBSC QFE755
Conditions at: URSS (SOTCHI , RU) observed 2030 UTC 15 June 2019
Temperature: 24.0°C (75°F)
Dewpoint: 20.0°C (68°F) [RH = 78%]
Pressure (altimeter): 29.79 inches Hg (1009.0 mb)
Winds: from the NE (50 degrees) at 7 MPH (6 knots; 3.1 m/s)
Visibility: 6 or more miles (10+ km)
Ceiling: 1000 feet AGL
Clouds: broken clouds at 1000 feet AGL
Weather: no significant weather observed at this time

METAR text: URSS 152000Z 05003MPS 9999 BKN010 24/20 Q1009 R02/010070 R06/010070 NOSIG RMK R06/08004MPS MT OBSC QFE755
Conditions at: URSS (SOTCHI , RU) observed 2000 UTC 15 June 2019
Temperature: 24.0°C (75°F)
Dewpoint: 20.0°C (68°F) [RH = 78%]
Pressure (altimeter): 29.79 inches Hg (1009.0 mb)
Winds: from the NE (50 degrees) at 7 MPH (6 knots; 3.1 m/s)
Visibility: 6 or more miles (10+ km)
Ceiling: 1000 feet AGL
Clouds: broken clouds at 1000 feet AGL
Weather: no significant weather observed at this time

METAR text: URSS 151930Z 04002MPS 9999 SCT011 23/20 Q1009 R02/010070 R06/010070 NOSIG RMK R06/07003MPS MT OBSC QFE755
Conditions at: URSS (SOTCHI , RU) observed 1930 UTC 15 June 2019
Temperature: 23.0°C (73°F)
Dewpoint: 20.0°C (68°F) [RH = 83%]
Pressure (altimeter): 29.79 inches Hg (1009.0 mb)
Winds: from the NE (40 degrees) at 5 MPH (4 knots; 2.1 m/s)
Visibility: 6 or more miles (10+ km)
Ceiling: at least 12,000 feet AGL
Clouds: scattered clouds at 1100 feet AGL
Weather: no significant weather observed at this time

METAR text: URSS 151900Z 05002MPS 9999 SCT011 23/19 Q1009 R02/010070 R06/010070 NOSIG RMK R06/07003MPS MT OBSC QFE755
Conditions at: URSS (SOTCHI , RU) observed 1900 UTC 15 June 2019
Temperature: 23.0°C (73°F)
Dewpoint: 19.0°C (66°F) [RH = 78%]
Pressure (altimeter): 29.79 inches Hg (1009.0 mb)
Winds: from the NE (50 degrees) at 5 MPH (4 knots; 2.1 m/s)
Visibility: 6 or more miles (10+ km)
Ceiling: at least 12,000 feet AGL
Clouds: scattered clouds at 1100 feet AGL
Weather: no significant weather observed at this time

METAR text: URSS 151830Z 06002MPS 9999 NSC 24/21 Q1008 R02/010070 R06/010070 NOSIG RMK R06/07003MPS QFE755
Conditions at: URSS (SOTCHI , RU) observed 1830 UTC 15 June 2019
Temperature: 24.0°C (75°F)
Dewpoint: 21.0°C (70°F) [RH = 83%]
Pressure (altimeter): 29.76 inches Hg (1008.0 mb)
Winds: from the ENE (60 degrees) at 5 MPH (4 knots; 2.1 m/s)
Visibility: 6 or more miles (10+ km)
Ceiling: at least 12,000 feet AGL
Clouds: sky clear below 12,000 feet AGL
Weather: no significant weather observed at this time

METAR text: URSS 151800Z 31001MPS 9999 NSC 25/23 Q1008 R02/010070 R06/010070 NOSIG RMK R06/00000MPS QFE754
Conditions at: URSS (SOTCHI , RU) observed 1800 UTC 15 June 2019
Temperature: 25.0°C (77°F)
Dewpoint: 23.0°C (73°F) [RH = 89%]
Pressure (altimeter): 29.76 inches Hg (1008.0 mb)
Winds: from the NW (310 degrees) at 2 MPH (2 knots; 1.0 m/s)
Visibility: 6 or more miles (10+ km)
Ceiling: at least 12,000 feet AGL
Clouds: sky clear below 12,000 feet AGL
Weather: no significant weather observed at this time

METAR text: URSS 151730Z 31001MPS 9999 NSC 26/23 Q1007 R02/010070 R06/010070 NOSIG RMK R06/32003MPS QFE754
Conditions at: URSS (SOTCHI , RU) observed 1730 UTC 15 June 2019
Temperature: 26.0°C (79°F)
Dewpoint: 23.0°C (73°F) [RH = 84%]
Pressure (altimeter): 29.73 inches Hg (1007.0 mb)
Winds: from the NW (310 degrees) at 2 MPH (2 knots; 1.0 m/s)
Visibility: 6 or more miles (10+ km)
Ceiling: at least 12,000 feet AGL
Clouds: sky clear below 12,000 feet AGL
Weather: no significant weather observed at this time

METAR text: URSS 151700Z 30002MPS 9999 NSC 26/23 Q1007 WS ALL RWY R02/010070 R06/010070 NOSIG RMK R06/32003G10MPS QFE754
Conditions at: URSS (SOTCHI , RU) observed 1700 UTC 15 June 2019
Temperature: 26.0°C (79°F)
Dewpoint: 23.0°C (73°F) [RH = 84%]
Pressure (altimeter): 29.73 inches Hg (1007.0 mb)
Winds: from the WNW (300 degrees) at 5 MPH (4 knots; 2.1 m/s)
Visibility: 6 or more miles (10+ km)
Ceiling: at least 12,000 feet AGL
Clouds: sky clear below 12,000 feet AGL
Weather: no significant weather observed at this time

METAR text: URSS 151630Z 29002MPS 250V320 9999 NSC 26/23 Q1007 WS ALL RWY R02/010070 R06/010070 NOSIG RMK R06/31003G06MPS QFE754
Conditions at: URSS (SOTCHI , RU) observed 1630 UTC 15 June 2019
Temperature: 26.0°C (79°F)
Dewpoint: 23.0°C (73°F) [RH = 84%]
Pressure (altimeter): 29.73 inches Hg (1007.0 mb)
Winds: from the WNW (290 degrees) at 5 MPH (4 knots; 2.1 m/s)
Visibility: 6 or more miles (10+ km)
Ceiling: at least 12,000 feet AGL
Clouds: sky clear below 12,000 feet AGL
Weather: no significant weather observed at this time

METAR text: URSS 151600Z 28003MPS 9999 SCT060CB 26/22 Q1007 WS ALL RWY R02/010070 R06/010070 NOSIG RMK R06/30005MPS QFE754
Conditions at: URSS (SOTCHI , RU) observed 1600 UTC 15 June 2019
Temperature: 26.0°C (79°F)
Dewpoint: 22.0°C (72°F) [RH = 79%]
Pressure (altimeter): 29.73 inches Hg (1007.0 mb)
Winds: from the W (280 degrees) at 7 MPH (6 knots; 3.1 m/s)
Visibility: 6 or more miles (10+ km)
Ceiling: at least 12,000 feet AGL
Clouds: scattered clouds at 6000 feet AGL
Weather: no significant weather observed at this time

METAR text: URSS 151530Z 30004MPS 9999 SCT060CB 27/22 Q1007 WS ALL RWY R02/010070 R06/010070 NOSIG RMK R06/31005MPS QFE754
Conditions at: URSS (SOTCHI , RU) observed 1530 UTC 15 June 2019
Temperature: 27.0°C (81°F)
Dewpoint: 22.0°C (72°F) [RH = 74%]
Pressure (altimeter): 29.73 inches Hg (1007.0 mb)
Winds: from the WNW (300 degrees) at 9 MPH (8 knots; 4.1 m/s)
Visibility: 6 or more miles (10+ km)
Ceiling: at least 12,000 feet AGL
Clouds: scattered clouds at 6000 feet AGL
Weather: no significant weather observed at this time

METAR text: URSS 151500Z 29004MPS 9999 SCT060CB 27/22 Q1007 WS ALL RWY R02/010070 R06/010070 NOSIG RMK R06/30005MPS QFE754
Conditions at: URSS (SOTCHI , RU) observed 1500 UTC 15 June 2019
Temperature: 27.0°C (81°F)
Dewpoint: 22.0°C (72°F) [RH = 74%]
Pressure (altimeter): 29.73 inches Hg (1007.0 mb)
Winds: from the WNW (290 degrees) at 9 MPH (8 knots; 4.1 m/s)
Visibility: 6 or more miles (10+ km)
Ceiling: at least 12,000 feet AGL
Clouds: scattered clouds at 6000 feet AGL
Weather: no significant weather observed at this time

METAR text: URSS 151430Z 29003MPS 9999 SCT040CB 27/22 Q1007 WS ALL RWY R02/010070 R06/010070 NOSIG RMK R06/30005MPS MT OBSC QFE754
Conditions at: URSS (SOTCHI , RU) observed 1430 UTC 15 June 2019
Temperature: 27.0°C (81°F)
Dewpoint: 22.0°C (72°F) [RH = 74%]
Pressure (altimeter): 29.73 inches Hg (1007.0 mb)
Winds: from the WNW (290 degrees) at 7 MPH (6 knots; 3.1 m/s)
Visibility: 6 or more miles (10+ km)
Ceiling: at least 12,000 feet AGL
Clouds: scattered clouds at 4000 feet AGL
Weather: no significant weather observed at this time

METAR text: URSS 151400Z 31005MPS 9999 SCT040CB 27/22 Q1007 WS ALL RWY R02/010070 R06/010070 NOSIG RMK R06/32004G07MPS MT OBSC QFE754
Conditions at: URSS (SOTCHI , RU) observed 1400 UTC 15 June 2019
Temperature: 27.0°C (81°F)
Dewpoint: 22.0°C (72°F) [RH = 74%]
Pressure (altimeter): 29.73 inches Hg (1007.0 mb)
Winds: from the NW (310 degrees) at 12 MPH (10 knots; 5.1 m/s)
Visibility: 6 or more miles (10+ km)
Ceiling: at least 12,000 feet AGL
Clouds: scattered clouds at 4000 feet AGL
Weather: no significant weather observed at this time

METAR text: URSS 151330Z 32005MPS 9999 SCT040CB 27/23 Q1007 WS ALL RWY R02/010070 R06/010070 NOSIG RMK R06/31006G09MPS MT OBSC QFE754
Conditions at: URSS (SOTCHI , RU) observed 1330 UTC 15 June 2019
Temperature: 27.0°C (81°F)
Dewpoint: 23.0°C (73°F) [RH = 79%]
Pressure (altimeter): 29.73 inches Hg (1007.0 mb)
Winds: from the NW (320 degrees) at 12 MPH (10 knots; 5.1 m/s)
Visibility: 6 or more miles (10+ km)
Ceiling: at least 12,000 feet AGL
Clouds: scattered clouds at 4000 feet AGL
Weather: no significant weather observed at this time

METAR text: URSS 151300Z 29005MPS 9999 SCT040CB 28/22 Q1008 WS ALL RWY R02/010070 R06/010070 NOSIG RMK R06/29007G10MPS MT OBSC QFE754
Conditions at: URSS (SOTCHI , RU) observed 1300 UTC 15 June 2019
Temperature: 28.0°C (82°F)
Dewpoint: 22.0°C (72°F) [RH = 70%]
Pressure (altimeter): 29.76 inches Hg (1008.0 mb)
Winds: from the WNW (290 degrees) at 12 MPH (10 knots; 5.1 m/s)
Visibility: 6 or more miles (10+ km)
Ceiling: at least 12,000 feet AGL
Clouds: scattered clouds at 4000 feet AGL
Weather: no significant weather observed at this time

METAR text: URSS 151230Z 28004MPS 9999 SCT040CB 29/21 Q1008 WS ALL RWY R02/010070 R06/010070 NOSIG RMK R06/29006MPS MT OBSC QFE755
Conditions at: URSS (SOTCHI , RU) observed 1230 UTC 15 June 2019
Temperature: 29.0°C (84°F)
Dewpoint: 21.0°C (70°F) [RH = 62%]
Pressure (altimeter): 29.76 inches Hg (1008.0 mb)
Winds: from the W (280 degrees) at 9 MPH (8 knots; 4.1 m/s)
Visibility: 6 or more miles (10+ km)
Ceiling: at least 12,000 feet AGL
Clouds: scattered clouds at 4000 feet AGL
Weather: no significant weather observed at this time

METAR text: URSS 151200Z 30005MPS 9999 FEW040CB 28/22 Q1008 WS ALL RWY R02/010070 R06/010070 NOSIG RMK R06/30006G09MPS MT OBSC QFE755
Conditions at: URSS (SOTCHI , RU) observed 1200 UTC 15 June 2019
Temperature: 28.0°C (82°F)
Dewpoint: 22.0°C (72°F) [RH = 70%]
Pressure (altimeter): 29.76 inches Hg (1008.0 mb)
Winds: from the WNW (300 degrees) at 12 MPH (10 knots; 5.1 m/s)
Visibility: 6 or more miles (10+ km)
Ceiling: at least 12,000 feet AGL
Clouds: few clouds at 4000 feet AGL
Weather: no significant weather observed at this time

METAR text: URSS 151130Z 29006MPS 9999 FEW040CB 27/23 Q1008 WS ALL RWY R02/010070 R06/010070 NOSIG RMK R06/29007G10MPS MT OBSC QFE755
Conditions at: URSS (SOTCHI , RU) observed 1130 UTC 15 June 2019
Temperature: 27.0°C (81°F)
Dewpoint: 23.0°C (73°F) [RH = 79%]
Pressure (altimeter): 29.76 inches Hg (1008.0 mb)
Winds: from the WNW (290 degrees) at 14 MPH (12 knots; 6.2 m/s)
Visibility: 6 or more miles (10+ km)
Ceiling: at least 12,000 feet AGL
Clouds: few clouds at 4000 feet AGL
Weather: no significant weather observed at this time

METAR text: URSS 151100Z 27006MPS 9999 FEW040CB 28/23 Q1009 WS ALL RWY R02/010070 R06/010070 NOSIG RMK R06/29007G10MPS MT OBSC QFE755
Conditions at: URSS (SOTCHI , RU) observed 1100 UTC 15 June 2019
Temperature: 28.0°C (82°F)
Dewpoint: 23.0°C (73°F) [RH = 74%]
Pressure (altimeter): 29.79 inches Hg (1009.0 mb)
Winds: from the W (270 degrees) at 14 MPH (12 knots; 6.2 m/s)
Visibility: 6 or more miles (10+ km)
Ceiling: at least 12,000 feet AGL
Clouds: few clouds at 4000 feet AGL
Weather: no significant weather observed at this time

METAR text: URSS 151030Z 30004MPS 260V330 9999 FEW040CB 28/23 Q1009 WS ALL RWY R02/010070 R06/010070 NOSIG RMK R06/29007G10MPS MT OBSC QFE755
Conditions at: URSS (SOTCHI , RU) observed 1030 UTC 15 June 2019
Temperature: 28.0°C (82°F)
Dewpoint: 23.0°C (73°F) [RH = 74%]
Pressure (altimeter): 29.79 inches Hg (1009.0 mb)
Winds: from the WNW (300 degrees) at 9 MPH (8 knots; 4.1 m/s)
Visibility: 6 or more miles (10+ km)
Ceiling: at least 12,000 feet AGL
Clouds: few clouds at 4000 feet AGL
Weather: no significant weather observed at this time

METAR text: URSS 151000Z 28005MPS 9999 FEW040CB 28/23 Q1009 WS ALL RWY R02/010070 R06/010070 NOSIG RMK R06/28006G09MPS MT OBSC QFE755
Conditions at: URSS (SOTCHI , RU) observed 1000 UTC 15 June 2019
Temperature: 28.0°C (82°F)
Dewpoint: 23.0°C (73°F) [RH = 74%]
Pressure (altimeter): 29.79 inches Hg (1009.0 mb)
Winds: from the W (280 degrees) at 12 MPH (10 knots; 5.1 m/s)
Visibility: 6 or more miles (10+ km)
Ceiling: at least 12,000 feet AGL
Clouds: few clouds at 4000 feet AGL
Weather: no significant weather observed at this time

METAR text: URSS 150930Z 28005MPS 9999 FEW040CB 27/23 Q1010 WS ALL RWY R02/010070 R06/010070 NOSIG RMK R06/28006G09MPS MT OBSC QFE756
Conditions at: URSS (SOTCHI , RU) observed 0930 UTC 15 June 2019
Temperature: 27.0°C (81°F)
Dewpoint: 23.0°C (73°F) [RH = 79%]
Pressure (altimeter): 29.82 inches Hg (1010.0 mb)
Winds: from the W (280 degrees) at 12 MPH (10 knots; 5.1 m/s)
Visibility: 6 or more miles (10+ km)
Ceiling: at least 12,000 feet AGL
Clouds: few clouds at 4000 feet AGL
Weather: no significant weather observed at this time

METAR text: URSS 150900Z 27005MPS 9999 FEW040CB 28/22 Q1010 WS ALL RWY R02/010070 R06/010070 NOSIG RMK R06/29006G09MPS MT OBSC QFE756
Conditions at: URSS (SOTCHI , RU) observed 0900 UTC 15 June 2019
Temperature: 28.0°C (82°F)
Dewpoint: 22.0°C (72°F) [RH = 70%]
Pressure (altimeter): 29.82 inches Hg (1010.0 mb)
Winds: from the W (270 degrees) at 12 MPH (10 knots; 5.1 m/s)
Visibility: 6 or more miles (10+ km)
Ceiling: at least 12,000 feet AGL
Clouds: few clouds at 4000 feet AGL
Weather: no significant weather observed at this time

METAR text: URSS 150830Z 27005MPS 9999 FEW040 28/22 Q1010 R02/010070 R06/010070 NOSIG RMK R06/28005MPS MT OBSC QFE756
Conditions at: URSS (SOTCHI , RU) observed 0830 UTC 15 June 2019
Temperature: 28.0°C (82°F)
Dewpoint: 22.0°C (72°F) [RH = 70%]
Pressure (altimeter): 29.82 inches Hg (1010.0 mb)
Winds: from the W (270 degrees) at 12 MPH (10 knots; 5.1 m/s)
Visibility: 6 or more miles (10+ km)
Ceiling: at least 12,000 feet AGL
Clouds: few clouds at 4000 feet AGL
Weather: no significant weather observed at this time

METAR text: URSS 150800Z 28004MPS 9999 FEW040 28/22 Q1010 R02/010070 R06/010070 NOSIG RMK R06/28005MPS MT OBSC QFE756
Conditions at: URSS (SOTCHI , RU) observed 0800 UTC 15 June 2019
Temperature: 28.0°C (82°F)
Dewpoint: 22.0°C (72°F) [RH = 70%]
Pressure (altimeter): 29.82 inches Hg (1010.0 mb)
Winds: from the W (280 degrees) at 9 MPH (8 knots; 4.1 m/s)
Visibility: 6 or more miles (10+ km)
Ceiling: at least 12,000 feet AGL
Clouds: few clouds at 4000 feet AGL
Weather: no significant weather observed at this time

METAR text: URSS 150730Z 26003MPS 230V310 9999 NSC 28/21 Q1010 R02/010070 R06/010070 NOSIG RMK R06/27004MPS QFE756
Conditions at: URSS (SOTCHI , RU) observed 0730 UTC 15 June 2019
Temperature: 28.0°C (82°F)
Dewpoint: 21.0°C (70°F) [RH = 66%]
Pressure (altimeter): 29.82 inches Hg (1010.0 mb)
Winds: from the W (260 degrees) at 7 MPH (6 knots; 3.1 m/s)
Visibility: 6 or more miles (10+ km)
Ceiling: at least 12,000 feet AGL
Clouds: sky clear below 12,000 feet AGL
Weather: no significant weather observed at this time

METAR text: URSS 150700Z 27003MPS 9999 NSC 27/21 Q1010 R02/010070 R06/010070 NOSIG RMK R06/27004MPS QFE756
Conditions at: URSS (SOTCHI , RU) observed 0700 UTC 15 June 2019
Temperature: 27.0°C (81°F)
Dewpoint: 21.0°C (70°F) [RH = 70%]
Pressure (altimeter): 29.82 inches Hg (1010.0 mb)
Winds: from the W (270 degrees) at 7 MPH (6 knots; 3.1 m/s)
Visibility: 6 or more miles (10+ km)
Ceiling: at least 12,000 feet AGL
Clouds: sky clear below 12,000 feet AGL
Weather: no significant weather observed at this time

METAR text: URSS 150630Z 27004MPS 9999 NSC 27/21 Q1010 R02/010070 R06/010070 NOSIG RMK R06/26004MPS QFE756
Conditions at: URSS (SOTCHI , RU) observed 0630 UTC 15 June 2019
Temperature: 27.0°C (81°F)
Dewpoint: 21.0°C (70°F) [RH = 70%]
Pressure (altimeter): 29.82 inches Hg (1010.0 mb)
Winds: from the W (270 degrees) at 9 MPH (8 knots; 4.1 m/s)
Visibility: 6 or more miles (10+ km)
Ceiling: at least 12,000 feet AGL
Clouds: sky clear below 12,000 feet AGL
Weather: no significant weather observed at this time

METAR text: URSS 150600Z 24002MPS 140V300 9999 NSC 27/19 Q1010 R02/010070 R06/010070 NOSIG RMK R06/28004G09MPS QFE756
Conditions at: URSS (SOTCHI , RU) observed 0600 UTC 15 June 2019
Temperature: 27.0°C (81°F)
Dewpoint: 19.0°C (66°F) [RH = 62%]
Pressure (altimeter): 29.82 inches Hg (1010.0 mb)
Winds: from the WSW (240 degrees) at 5 MPH (4 knots; 2.1 m/s)
Visibility: 6 or more miles (10+ km)
Ceiling: at least 12,000 feet AGL
Clouds: sky clear below 12,000 feet AGL
Weather: no significant weather observed at this time

Forecast for: URSS (SOTCHI , RU)
Text: TAF URSS 161657Z 1618/1718 05005MPS 9999 SCT040CB SCT100
Forecast period: 1800 UTC 16 June 2019 to 0600 UTC 17 June 2019
Forecast type: FROM: standard forecast or significant change
Winds: from the NE (50 degrees) at 12 MPH (10 knots; 5.1 m/s)
Visibility: 6 or more miles 10+ km)
Ceiling: at least 12,000 feet AGL
Clouds: scattered clouds at 4000 feet AGL
scattered clouds at 10000 feet AGL
Weather: no significant weather forecast for this period
Text: TEMPO 1618/1706 VRB01MPS SCT012
Forecast period: 1800 UTC 16 June 2019 to 0600 UTC 17 June 2019
Forecast type: TEMPORARY: The following changes expected for less than half the time period
Winds: variable direction winds at 2 MPH (2 knots; 1.0 m/s)
Visibility: missing
Ceiling: at least 12,000 feet AGL
Clouds: scattered clouds at 1200 feet AGL
Weather: no significant weather forecast for this period
Text: BECMG 1706/1707 23005MPS BKN030CB
Forecast period: 0600 to 1800 UTC 17 June 2019
Forecast type: BECOMING: Conditions expected to become as follows by 0700 UTC 17 June 2019
Winds: from the SW (230 degrees) at 12 MPH (10 knots; 5.1 m/s)
Visibility: 6 or more miles 10+ km)
Ceiling: 3000 feet AGL
Clouds: broken clouds at 3000 feet AGL
Weather: no significant weather forecast for this period
Text: TEMPO 1709/1718 VRB01MPS -TSRA
Forecast period: 0900 to 1800 UTC 17 June 2019
Forecast type: TEMPORARY: The following changes expected for less than half the time period
Winds: variable direction winds at 2 MPH (2 knots; 1.0 m/s)
Visibility: missing
Ceiling: unknown
Clouds: missing
Weather: -TSRA  (light rain associated with thunderstorm(s))